Time;durP1;ratioP1;P1;durP2;ratioP2;P2;SDS_P1;SDS_P2;PMS_P1;PMS_P2;Temp;Humidity;BMP_temperature;BMP_pressure;BME280_temperature;BME280_humidity;BME280_pressure;Samples;Min_cycle;Max_cycle;Signal;HPM_P1;HPM_P2
2023/03/10 00:01:31;;;;;;;34.35;12.07;;;;;;;;;;5026748;28;20109;-63
2023/03/10 00:03:58;;;;;;;30.80;10.07;;;;;;;;;;5029610;28;20046;-63
2023/03/10 00:06:27;;;;;;;30.88;10.68;;;;;;;;;;5030981;28;20044;-63
2023/03/10 00:08:53;;;;;;;30.38;9.90;;;;;;;;;;5032555;28;20436;-63
2023/03/10 00:11:19;;;;;;;28.35;9.95;;;;;;;;;;5012905;28;20113;-62
2023/03/10 00:13:44;;;;;;;26.77;9.57;;;;;;;;;;5032533;28;20493;-62
2023/03/10 00:16:25;;;;;;;28.95;9.25;;;;;;;;;;5032030;28;20477;-63
2023/03/10 00:18:51;;;;;;;20.58;7.78;;;;;;;;;;5031242;28;20057;-63
2023/03/10 00:21:29;;;;;;;24.58;6.85;;;;;;;;;;5028317;28;20157;-63
2023/03/10 00:23:55;;;;;;;16.40;5.00;;;;;;;;;;5029956;28;20044;-62
2023/03/10 00:26:23;;;;;;;17.40;4.38;;;;;;;;;;5013857;28;20033;-62
2023/03/10 00:28:49;;;;;;;9.18;3.20;;;;;;;;;;5032221;28;20037;-63
2023/03/10 00:31:20;;;;;;;8.70;3.10;;;;;;;;;;5030063;28;20123;-62
2023/03/10 00:33:46;;;;;;;9.55;2.80;;;;;;;;;;5028809;28;20120;-62
2023/03/10 00:36:15;;;;;;;11.45;3.22;;;;;;;;;;5020199;28;20128;-62
2023/03/10 00:38:42;;;;;;;8.05;2.85;;;;;;;;;;5031948;28;20037;-62
2023/03/10 00:41:11;;;;;;;13.68;2.92;;;;;;;;;;5031472;28;20445;-62
2023/03/10 00:43:36;;;;;;;7.38;3.00;;;;;;;;;;5031478;28;20026;-62
2023/03/10 00:46:03;;;;;;;8.05;3.20;;;;;;;;;;5031931;28;20052;-62
2023/03/10 00:48:29;;;;;;;6.68;2.55;;;;;;;;;;5032217;28;20394;-63
2023/03/10 00:50:54;;;;;;;6.95;2.80;;;;;;;;;;5029712;28;20033;-61
2023/03/10 00:53:19;;;;;;;6.30;2.80;;;;;;;;;;5030822;28;20079;-62
2023/03/10 00:56:00;;;;;;;6.45;2.70;;;;;;;;;;5029229;28;20036;-62
2023/03/10 00:58:26;;;;;;;6.60;2.67;;;;;;;;;;5028600;28;20056;-62
2023/03/10 01:00:51;;;;;;;6.75;2.63;;;;;;;;;;5030251;28;20022;-61
2023/03/10 01:03:16;;;;;;;8.63;2.50;;;;;;;;;;5028357;28;20415;-61
2023/03/10 01:05:42;;;;;;;4.25;2.10;;;;;;;;;;5029925;28;20036;-62
2023/03/10 01:08:07;;;;;;;2.70;1.70;;;;;;;;;;5033058;28;20072;-62
2023/03/10 01:10:32;;;;;;;7.93;2.45;;;;;;;;;;5030551;28;20033;-62
2023/03/10 01:12:58;;;;;;;3.35;1.55;;;;;;;;;;5033681;28;20116;-61
2023/03/10 01:15:23;;;;;;;2.33;1.80;;;;;;;;;;5032936;28;20057;-62
2023/03/10 01:17:49;;;;;;;3.05;1.80;;;;;;;;;;5031438;28;20033;-62
2023/03/10 01:20:15;;;;;;;2.42;1.77;;;;;;;;;;5030956;28;20112;-63
2023/03/10 01:22:41;;;;;;;2.65;1.65;;;;;;;;;;5029050;28;20405;-63
2023/03/10 01:25:11;;;;;;;6.18;2.10;;;;;;;;;;5029064;28;20029;-62
2023/03/10 01:27:36;;;;;;;2.80;2.00;;;;;;;;;;5029840;28;20114;-63
2023/03/10 01:30:01;;;;;;;4.10;2.10;;;;;;;;;;5031852;28;20069;-64
2023/03/10 01:32:27;;;;;;;2.45;1.60;;;;;;;;;;5030054;28;20048;-64
2023/03/10 01:34:52;;;;;;;1.77;1.20;;;;;;;;;;5009439;28;20049;-62
2023/03/10 01:37:17;;;;;;;3.17;1.48;;;;;;;;;;5028438;28;20454;-63
2023/03/10 01:39:43;;;;;;;2.42;1.40;;;;;;;;;;5030112;28;20112;-62
2023/03/10 01:42:08;;;;;;;3.97;2.00;;;;;;;;;;5031610;28;20505;-63
2023/03/10 01:44:33;;;;;;;2.13;1.42;;;;;;;;;;5029056;28;20056;-65
2023/03/10 01:46:59;;;;;;;3.00;1.70;;;;;;;;;;5032377;28;20044;-64
2023/03/10 01:49:54;;;;;;;2.15;1.63;;;;;;;;;;5031370;28;20029;-64
2023/03/10 01:52:23;;;;;;;4.95;2.33;;;;;;;;;;5018529;28;20057;-65
2023/03/10 01:54:55;;;;;;;2.60;1.67;;;;;;;;;;5030122;28;20187;-63
2023/03/10 01:57:29;;;;;;;3.47;2.22;;;;;;;;;;5023105;28;20060;-63
2023/03/10 01:59:55;;;;;;;3.75;1.90;;;;;;;;;;5031364;28;20040;-65
2023/03/10 02:02:23;;;;;;;6.15;3.30;;;;;;;;;;5029198;28;20242;-64
2023/03/10 02:04:50;;;;;;;4.65;2.90;;;;;;;;;;5028184;28;20390;-65
2023/03/10 02:07:19;;;;;;;8.23;4.90;;;;;;;;;;5028382;28;20470;-63
2023/03/10 02:09:47;;;;;;;9.60;5.82;;;;;;;;;;5017935;28;20039;-63
2023/03/10 02:12:14;;;;;;;8.20;5.15;;;;;;;;;;5022300;28;20404;-62
2023/03/10 02:14:42;;;;;;;10.52;5.25;;;;;;;;;;5032571;28;20038;-65
2023/03/10 02:17:12;;;;;;;8.73;6.18;;;;;;;;;;5031755;28;20029;-62
2023/03/10 02:19:43;;;;;;;10.50;5.82;;;;;;;;;;5012360;28;20030;-62
2023/03/10 02:22:11;;;;;;;8.60;4.75;;;;;;;;;;5020024;28;20044;-62
2023/03/10 02:24:42;;;;;;;8.52;4.40;;;;;;;;;;5023120;28;20030;-63
2023/03/10 02:27:33;;;;;;;6.22;3.80;;;;;;;;;;5030178;28;20036;-63
2023/03/10 02:30:23;;;;;;;8.30;3.88;;;;;;;;;;5013738;28;20041;-62
2023/03/10 02:32:54;;;;;;;6.85;3.80;;;;;;;;;;5028405;28;21282;-62
2023/03/10 02:35:20;;;;;;;5.68;3.25;;;;;;;;;;5030025;28;20033;-63
2023/03/10 02:37:45;;;;;;;5.25;3.13;;;;;;;;;;5028869;28;20087;-63
2023/03/10 02:40:39;;;;;;;4.57;3.20;;;;;;;;;;5017711;28;20029;-63
2023/03/10 02:43:18;;;;;;;5.93;3.53;;;;;;;;;;5027812;28;20065;-63
2023/03/10 02:45:46;;;;;;;7.63;3.75;;;;;;;;;;5028326;28;20387;-63
2023/03/10 02:48:17;;;;;;;9.13;4.20;;;;;;;;;;5029371;28;20175;-64
2023/03/10 02:50:46;;;;;;;6.95;4.13;;;;;;;;;;5028658;28;20033;-63
2023/03/10 02:53:23;;;;;;;10.93;5.88;;;;;;;;;;5030577;28;20060;-63
2023/03/10 02:55:50;;;;;;;11.20;5.93;;;;;;;;;;5028611;28;20033;-63
2023/03/10 02:58:16;;;;;;;11.95;6.57;;;;;;;;;;5030251;28;20382;-63
2023/03/10 03:00:43;;;;;;;12.20;6.95;;;;;;;;;;5024479;28;20037;-63
2023/03/10 03:03:10;;;;;;;14.23;6.80;;;;;;;;;;5030134;28;20105;-63
2023/03/10 03:05:36;;;;;;;12.30;7.03;;;;;;;;;;5027892;28;20033;-63
2023/03/10 03:08:03;;;;;;;12.70;7.43;;;;;;;;;;5028940;28;20115;-63
2023/03/10 03:10:28;;;;;;;12.32;7.03;;;;;;;;;;5026223;28;20064;-64
2023/03/10 03:12:55;;;;;;;12.80;6.03;;;;;;;;;;5029415;28;20076;-63
2023/03/10 03:15:22;;;;;;;14.13;7.50;;;;;;;;;;5028608;28;20033;-63
2023/03/10 03:17:47;;;;;;;17.50;8.80;;;;;;;;;;5028415;28;20042;-62
2023/03/10 03:20:13;;;;;;;26.35;12.50;;;;;;;;;;5027616;28;20037;-63
2023/03/10 03:22:43;;;;;;;21.77;10.35;;;;;;;;;;5029340;28;20037;-62
2023/03/10 03:25:11;;;;;;;15.48;8.82;;;;;;;;;;5009690;28;20026;-62
2023/03/10 03:27:37;;;;;;;17.10;9.95;;;;;;;;;;5009320;28;20171;-62
2023/03/10 03:30:05;;;;;;;13.90;7.78;;;;;;;;;;5013185;28;20045;-64
2023/03/10 03:32:30;;;;;;;15.30;8.27;;;;;;;;;;5027765;28;20037;-62
2023/03/10 03:34:56;;;;;;;17.80;9.15;;;;;;;;;;5031474;28;20428;-62
2023/03/10 03:37:21;;;;;;;18.48;9.25;;;;;;;;;;5025924;28;20033;-63
2023/03/10 03:39:47;;;;;;;17.60;9.20;;;;;;;;;;5028093;28;20045;-62
2023/03/10 03:42:12;;;;;;;16.48;9.25;;;;;;;;;;5028131;28;20029;-62
2023/03/10 03:44:37;;;;;;;15.95;8.50;;;;;;;;;;5028856;28;20560;-62
2023/03/10 03:47:04;;;;;;;15.77;9.43;;;;;;;;;;5026446;28;20036;-62
2023/03/10 03:49:29;;;;;;;15.48;9.35;;;;;;;;;;5028933;28;20112;-62
2023/03/10 03:51:55;;;;;;;19.63;10.13;;;;;;;;;;5029277;28;20112;-62
2023/03/10 03:54:20;;;;;;;19.67;10.50;;;;;;;;;;5027222;28;20033;-62
2023/03/10 03:56:45;;;;;;;16.83;9.63;;;;;;;;;;5030773;28;20504;-63
2023/03/10 03:59:11;;;;;;;17.48;9.80;;;;;;;;;;5026254;28;20144;-62
2023/03/10 04:01:36;;;;;;;19.15;9.93;;;;;;;;;;5026802;28;20025;-62
2023/03/10 04:04:01;;;;;;;20.05;10.00;;;;;;;;;;5026554;28;20044;-62
2023/03/10 04:06:27;;;;;;;19.23;9.52;;;;;;;;;;5024724;28;20418;-63
2023/03/10 04:08:52;;;;;;;18.70;9.95;;;;;;;;;;5027105;28;20037;-63
2023/03/10 04:11:18;;;;;;;19.00;10.35;;;;;;;;;;5026497;28;20026;-63
2023/03/10 04:13:43;;;;;;;23.13;10.68;;;;;;;;;;5027912;28;20032;-63
2023/03/10 04:16:08;;;;;;;17.75;9.18;;;;;;;;;;5029407;28;20033;-63
2023/03/10 04:18:34;;;;;;;17.10;9.05;;;;;;;;;;5031478;28;20417;-62
2023/03/10 04:21:00;;;;;;;15.98;8.55;;;;;;;;;;5031546;28;20025;-62
2023/03/10 04:23:25;;;;;;;17.77;8.77;;;;;;;;;;5032008;28;20025;-62
2023/03/10 04:25:51;;;;;;;16.50;9.23;;;;;;;;;;5032156;28;20037;-63
2023/03/10 04:28:16;;;;;;;17.00;9.10;;;;;;;;;;5011329;28;20030;-62
2023/03/10 04:30:43;;;;;;;20.00;8.43;;;;;;;;;;5027329;28;20501;-63
2023/03/10 04:33:10;;;;;;;15.68;8.82;;;;;;;;;;5030103;28;20025;-63
2023/03/10 04:35:40;;;;;;;21.17;9.68;;;;;;;;;;5028493;28;20037;-63
2023/03/10 04:38:05;;;;;;;14.27;7.32;;;;;;;;;;5031467;28;20029;-64
2023/03/10 04:40:30;;;;;;;15.95;7.28;;;;;;;;;;5030688;28;20363;-63
2023/03/10 04:42:56;;;;;;;17.27;7.57;;;;;;;;;;5021919;28;20030;-64
2023/03/10 04:45:21;;;;;;;14.50;6.57;;;;;;;;;;5032978;28;20449;-62
2023/03/10 04:47:47;;;;;;;13.25;6.80;;;;;;;;;;5016246;28;20030;-63
2023/03/10 04:50:16;;;;;;;17.42;6.95;;;;;;;;;;5033535;28;20036;-63
2023/03/10 04:52:42;;;;;;;14.88;6.90;;;;;;;;;;5033126;28;20060;-62
2023/03/10 04:55:07;;;;;;;18.42;7.70;;;;;;;;;;5033984;28;20064;-63
2023/03/10 04:57:33;;;;;;;14.30;7.05;;;;;;;;;;5032971;28;20148;-64
2023/03/10 04:59:58;;;;;;;14.10;6.47;;;;;;;;;;5033718;28;20029;-63
2023/03/10 05:02:24;;;;;;;13.45;7.63;;;;;;;;;;5032997;28;20401;-62
2023/03/10 05:04:49;;;;;;;18.20;7.70;;;;;;;;;;5033944;28;20029;-62
2023/03/10 05:07:15;;;;;;;14.63;6.85;;;;;;;;;;5031570;28;20033;-63
2023/03/10 05:09:41;;;;;;;14.82;6.32;;;;;;;;;;5044270;28;20619;-62
2023/03/10 05:12:07;;;;;;;12.48;6.47;;;;;;;;;;5018934;28;20040;-62
2023/03/10 05:14:32;;;;;;;14.23;6.35;;;;;;;;;;5032656;28;20030;-62
2023/03/10 05:16:58;;;;;;;13.00;6.13;;;;;;;;;;5033704;28;20029;-63
2023/03/10 05:19:23;;;;;;;16.10;5.90;;;;;;;;;;5033132;28;20030;-62
2023/03/10 05:21:49;;;;;;;12.38;4.80;;;;;;;;;;5033383;28;20026;-63
2023/03/10 05:24:14;;;;;;;13.27;4.55;;;;;;;;;;5015252;28;20362;-64
2023/03/10 05:26:40;;;;;;;9.95;4.50;;;;;;;;;;5033000;28;20499;-63
2023/03/10 05:29:06;;;;;;;11.30;3.83;;;;;;;;;;5033257;28;20026;-64
2023/03/10 05:31:31;;;;;;;9.45;3.70;;;;;;;;;;5032838;28;20037;-63
2023/03/10 05:33:57;;;;;;;9.18;3.78;;;;;;;;;;5033262;28;20040;-63
2023/03/10 05:36:23;;;;;;;7.95;3.20;;;;;;;;;;5033135;28;20296;-64
2023/03/10 05:38:49;;;;;;;8.82;3.30;;;;;;;;;;5033071;28;20370;-64
2023/03/10 05:41:14;;;;;;;10.20;3.60;;;;;;;;;;5032979;28;20041;-63
2023/03/10 05:43:40;;;;;;;9.82;3.63;;;;;;;;;;5032382;28;20082;-61
2023/03/10 05:46:06;;;;;;;6.85;2.83;;;;;;;;;;5033310;28;20033;-63
2023/03/10 05:48:32;;;;;;;7.45;3.15;;;;;;;;;;5032469;28;20048;-62
2023/03/10 05:51:05;;;;;;;10.10;3.33;;;;;;;;;;5033311;28;20116;-63
2023/03/10 05:53:31;;;;;;;8.63;2.75;;;;;;;;;;5032551;28;20036;-64
2023/03/10 05:55:57;;;;;;;10.05;3.20;;;;;;;;;;5032904;28;20025;-64
2023/03/10 05:58:24;;;;;;;8.90;2.95;;;;;;;;;;5031658;28;20045;-62
2023/03/10 06:00:49;;;;;;;10.60;3.15;;;;;;;;;;5032540;28;20036;-63
2023/03/10 06:03:16;;;;;;;9.05;3.67;;;;;;;;;;5032010;28;20033;-69
2023/03/10 06:05:41;;;;;;;11.00;3.20;;;;;;;;;;5029139;28;20109;-68
2023/03/10 06:08:06;;;;;;;10.15;3.08;;;;;;;;;;5032624;28;20033;-68
2023/03/10 06:10:32;;;;;;;7.13;2.40;;;;;;;;;;5028309;28;20530;-69
2023/03/10 06:12:57;;;;;;;12.05;2.90;;;;;;;;;;5030156;28;20041;-68
2023/03/10 06:15:23;;;;;;;6.65;2.70;;;;;;;;;;5032242;28;20038;-68
2023/03/10 06:17:48;;;;;;;8.48;3.00;;;;;;;;;;5030408;28;20041;-69
2023/03/10 06:20:14;;;;;;;9.43;3.28;;;;;;;;;;5030060;28;20117;-71
2023/03/10 06:22:40;;;;;;;9.63;2.83;;;;;;;;;;5017376;28;20032;-70
2023/03/10 06:25:05;;;;;;;8.07;2.70;;;;;;;;;;5023875;28;20025;-73
2023/03/10 06:27:31;;;;;;;6.65;2.50;;;;;;;;;;5031259;28;20041;-71
2023/03/10 06:29:57;;;;;;;12.50;2.90;;;;;;;;;;5032257;28;20059;-71
2023/03/10 06:32:22;;;;;;;8.68;3.33;;;;;;;;;;5031971;28;20493;-72
2023/03/10 06:34:48;;;;;;;8.93;2.42;;;;;;;;;;5031312;28;20141;-76
2023/03/10 06:37:14;;;;;;;14.55;5.07;;;;;;;;;;5031743;28;20053;-69
2023/03/10 06:39:39;;;;;;;10.15;2.90;;;;;;;;;;5030342;28;20417;-73
2023/03/10 06:42:05;;;;;;;10.68;3.83;;;;;;;;;;5031339;28;20037;-71
2023/03/10 06:44:31;;;;;;;13.00;2.63;;;;;;;;;;5029861;28;20053;-73
2023/03/10 06:46:56;;;;;;;7.05;2.28;;;;;;;;;;5032060;28;20061;-71
2023/03/10 06:49:22;;;;;;;13.93;2.80;;;;;;;;;;5029470;28;20060;-70
2023/03/10 06:51:47;;;;;;;7.60;2.67;;;;;;;;;;5031147;28;20094;-70
2023/03/10 06:54:12;;;;;;;10.30;3.50;;;;;;;;;;5031416;28;20469;-68
2023/03/10 06:56:38;;;;;;;6.78;2.50;;;;;;;;;;5028947;28;20038;-68
2023/03/10 06:59:03;;;;;;;11.32;2.70;;;;;;;;;;5031382;28;20155;-70
2023/03/10 07:01:31;;;;;;;9.32;2.40;;;;;;;;;;5030519;28;20116;-69
2023/03/10 07:03:57;;;;;;;10.02;2.42;;;;;;;;;;5030575;28;20033;-69
2023/03/10 07:06:23;;;;;;;9.75;2.30;;;;;;;;;;5022005;28;20042;-70
2023/03/10 07:08:50;;;;;;;9.20;2.25;;;;;;;;;;5030708;28;21048;-73
2023/03/10 07:11:16;;;;;;;9.07;2.70;;;;;;;;;;5031108;28;20037;-72
2023/03/10 07:13:41;;;;;;;9.80;2.67;;;;;;;;;;5030230;28;20033;-72
2023/03/10 07:16:07;;;;;;;7.55;2.63;;;;;;;;;;5030193;28;20389;-73
2023/03/10 07:18:33;;;;;;;9.35;2.63;;;;;;;;;;5028349;28;20080;-71
2023/03/10 07:20:58;;;;;;;8.07;1.90;;;;;;;;;;5028892;28;20034;-70
2023/03/10 07:23:24;;;;;;;8.15;2.30;;;;;;;;;;5030744;28;20041;-74
2023/03/10 07:25:57;;;;;;;6.30;1.75;;;;;;;;;;5030621;28;20866;-74
2023/03/10 07:28:24;;;;;;;7.82;1.95;;;;;;;;;;5031291;28;20091;-74
2023/03/10 07:30:50;;;;;;;7.25;2.10;;;;;;;;;;5030711;28;20113;-71
2023/03/10 07:33:15;;;;;;;5.03;1.70;;;;;;;;;;5031421;28;20458;-69
2023/03/10 07:35:41;;;;;;;8.02;2.20;;;;;;;;;;5027821;28;20561;-68
2023/03/10 07:38:07;;;;;;;8.68;2.03;;;;;;;;;;5031338;28;20132;-68
2023/03/10 07:40:33;;;;;;;6.85;1.80;;;;;;;;;;5030285;28;20117;-68
2023/03/10 07:42:58;;;;;;;6.93;1.90;;;;;;;;;;5031599;28;20112;-69
2023/03/10 07:45:25;;;;;;;9.27;2.47;;;;;;;;;;5031146;28;20429;-67
2023/03/10 07:47:51;;;;;;;10.88;2.30;;;;;;;;;;5030593;28;20033;-70
2023/03/10 07:50:18;;;;;;;5.45;2.33;;;;;;;;;;5027500;28;20033;-64
2023/03/10 07:52:43;;;;;;;7.97;2.28;;;;;;;;;;5032726;28;20108;-68
2023/03/10 07:55:10;;;;;;;10.45;1.98;;;;;;;;;;5035183;28;20104;-68
2023/03/10 07:57:35;;;;;;;8.05;2.00;;;;;;;;;;5032637;28;20025;-62
2023/03/10 08:00:00;;;;;;;10.10;2.22;;;;;;;;;;5034662;28;20108;-63
2023/03/10 08:02:26;;;;;;;9.57;2.28;;;;;;;;;;5017284;28;20053;-66
2023/03/10 08:04:51;;;;;;;9.75;2.47;;;;;;;;;;5034295;28;20869;-66
2023/03/10 08:07:17;;;;;;;6.57;1.92;;;;;;;;;;5034888;28;20068;-66
2023/03/10 08:09:49;;;;;;;5.80;1.88;;;;;;;;;;4992862;28;20041;-67
2023/03/10 08:12:14;;;;;;;7.10;1.90;;;;;;;;;;5011243;28;20030;-65
2023/03/10 08:14:40;;;;;;;8.07;2.03;;;;;;;;;;5033859;28;20143;-66
2023/03/10 08:17:05;;;;;;;8.10;2.55;;;;;;;;;;5031237;28;20041;-70
2023/03/10 08:19:30;;;;;;;7.47;2.28;;;;;;;;;;5038877;28;20377;-67
2023/03/10 08:21:56;;;;;;;11.05;2.40;;;;;;;;;;5039784;28;20026;-69
2023/03/10 08:24:23;;;;;;;10.85;2.58;;;;;;;;;;5034565;28;20092;-67
2023/03/10 08:26:49;;;;;;;9.88;2.72;;;;;;;;;;5032581;28;20065;-68
2023/03/10 08:29:14;;;;;;;9.32;2.85;;;;;;;;;;5032803;28;20441;-70
2023/03/10 08:31:40;;;;;;;12.15;3.10;;;;;;;;;;5027161;28;20045;-68
2023/03/10 08:34:05;;;;;;;11.50;4.03;;;;;;;;;;5033204;28;20041;-69
2023/03/10 08:36:31;;;;;;;8.55;2.85;;;;;;;;;;5014406;28;20037;-67
2023/03/10 08:38:59;;;;;;;8.32;3.35;;;;;;;;;;5033771;28;20434;-70
2023/03/10 08:41:34;;;;;;;17.65;5.40;;;;;;;;;;5028077;28;20544;-68
2023/03/10 08:44:00;;;;;;;10.85;3.80;;;;;;;;;;5016435;28;20041;-67
2023/03/10 08:46:27;;;;;;;16.35;5.43;;;;;;;;;;5031371;28;20033;-67
2023/03/10 08:48:54;;;;;;;11.75;3.50;;;;;;;;;;5030311;28;20037;-67
2023/03/10 08:51:20;;;;;;;10.73;3.17;;;;;;;;;;5032748;28;20037;-67
2023/03/10 08:53:47;;;;;;;10.52;3.10;;;;;;;;;;5033607;28;20037;-70
2023/03/10 08:56:13;;;;;;;16.35;4.15;;;;;;;;;;5034146;28;20037;-70
2023/03/10 08:58:39;;;;;;;19.63;5.70;;;;;;;;;;5012030;28;20490;-68
2023/03/10 09:01:05;;;;;;;15.27;4.45;;;;;;;;;;5036165;28;20060;-68
2023/03/10 09:03:30;;;;;;;14.25;3.35;;;;;;;;;;5030302;28;20068;-70
2023/03/10 09:05:56;;;;;;;9.40;3.20;;;;;;;;;;5028904;28;20034;-68
2023/03/10 09:08:21;;;;;;;12.18;3.38;;;;;;;;;;5031294;28;20440;-68
2023/03/10 09:10:47;;;;;;;9.75;3.13;;;;;;;;;;5027978;28;20491;-68
2023/03/10 09:13:12;;;;;;;11.98;3.33;;;;;;;;;;5033537;28;20430;-67
2023/03/10 09:15:40;;;;;;;9.18;3.00;;;;;;;;;;5031806;28;20506;-65
2023/03/10 09:18:07;;;;;;;15.63;4.03;;;;;;;;;;5033431;28;20477;-66
2023/03/10 09:20:33;;;;;;;11.20;3.30;;;;;;;;;;5031276;28;20033;-66
2023/03/10 09:22:58;;;;;;;8.73;3.75;;;;;;;;;;5029449;28;20385;-66
2023/03/10 09:25:24;;;;;;;9.23;3.47;;;;;;;;;;5033236;28;20120;-63
2023/03/10 09:27:49;;;;;;;15.02;3.65;;;;;;;;;;5031523;28;20029;-66
2023/03/10 09:30:15;;;;;;;11.73;3.63;;;;;;;;;;5033495;28;20112;-64
2023/03/10 09:32:40;;;;;;;17.08;4.38;;;;;;;;;;5029769;28;20470;-62
2023/03/10 09:35:06;;;;;;;11.55;3.50;;;;;;;;;;5033416;28;20037;-62
2023/03/10 09:37:31;;;;;;;11.30;3.70;;;;;;;;;;5027985;28;20105;-65
2023/03/10 09:39:57;;;;;;;13.43;3.72;;;;;;;;;;5028619;28;20057;-63
2023/03/10 09:42:47;;;;;;;9.38;3.55;;;;;;;;;;5032769;28;20437;-64
2023/03/10 09:45:50;;;;;;;15.57;3.30;;;;;;;;;;5033365;28;20049;-65
2023/03/10 09:48:18;;;;;;;9.13;3.70;;;;;;;;;;5032442;28;20056;-63
2023/03/10 09:50:46;;;;;;;15.15;3.38;;;;;;;;;;5031659;28;20112;-63
2023/03/10 09:53:21;;;;;;;12.43;3.00;;;;;;;;;;5033507;28;20037;-64
2023/03/10 09:55:47;;;;;;;9.50;3.40;;;;;;;;;;5031327;28;20048;-66
2023/03/10 09:58:27;;;;;;;9.77;2.80;;;;;;;;;;5033072;28;20116;-66
2023/03/10 10:00:53;;;;;;;13.00;3.83;;;;;;;;;;5028705;28;20034;-66
2023/03/10 10:03:21;;;;;;;9.95;2.80;;;;;;;;;;5032623;28;20052;-68
2023/03/10 10:05:49;;;;;;;9.77;2.75;;;;;;;;;;5031285;28;20038;-68
2023/03/10 10:08:25;;;;;;;12.30;2.85;;;;;;;;;;5030266;28;20030;-65
2023/03/10 10:10:58;;;;;;;11.13;2.72;;;;;;;;;;5029321;28;20034;-66
2023/03/10 10:13:28;;;;;;;13.68;3.03;;;;;;;;;;5027343;28;20033;-65
2023/03/10 10:16:02;;;;;;;8.23;2.67;;;;;;;;;;5031314;28;20030;-65
2023/03/10 10:18:41;;;;;;;12.88;2.90;;;;;;;;;;5031482;28;20104;-66
2023/03/10 10:21:15;;;;;;;13.90;3.42;;;;;;;;;;5031817;28;20472;-66
2023/03/10 10:23:47;;;;;;;12.38;2.95;;;;;;;;;;5031699;28;20038;-66
2023/03/10 10:26:19;;;;;;;10.07;3.28;;;;;;;;;;5031461;28;20029;-66
2023/03/10 10:28:51;;;;;;;13.65;3.38;;;;;;;;;;5031339;28;20044;-68
2023/03/10 10:31:19;;;;;;;12.25;3.47;;;;;;;;;;5031373;28;20040;-69
2023/03/10 10:33:51;;;;;;;10.77;3.60;;;;;;;;;;5029829;28;20044;-70
2023/03/10 10:36:17;;;;;;;8.63;2.60;;;;;;;;;;5030955;28;20052;-70
2023/03/10 10:38:48;;;;;;;17.83;5.28;;;;;;;;;;5031165;28;20037;-70
2023/03/10 10:41:23;;;;;;;12.63;3.10;;;;;;;;;;5029841;28;20040;-70
2023/03/10 10:43:49;;;;;;;7.22;2.33;;;;;;;;;;5031149;28;20033;-69
2023/03/10 10:46:21;;;;;;;12.50;3.00;;;;;;;;;;5031416;28;20091;-70
2023/03/10 10:48:49;;;;;;;13.20;2.70;;;;;;;;;;5031426;28;20033;-70
2023/03/10 10:51:27;;;;;;;10.93;2.60;;;;;;;;;;5031508;28;20091;-71
2023/03/10 10:53:54;;;;;;;5.70;2.00;;;;;;;;;;5031272;28;20124;-70
2023/03/10 10:56:20;;;;;;;12.38;2.38;;;;;;;;;;5030588;28;20040;-70
2023/03/10 10:59:04;;;;;;;6.20;1.95;;;;;;;;;;5031066;28;20041;-68
2023/03/10 11:01:56;;;;;;;10.70;2.55;;;;;;;;;;5031644;28;20033;-68
2023/03/10 11:04:23;;;;;;;6.20;1.77;;;;;;;;;;5012308;28;20033;-67
2023/03/10 11:06:49;;;;;;;7.25;1.98;;;;;;;;;;5009539;28;20112;-66
2023/03/10 11:09:17;;;;;;;9.30;2.83;;;;;;;;;;5030776;28;20033;-66
2023/03/10 11:12:16;;;;;;;7.95;2.33;;;;;;;;;;5027529;28;20041;-66
2023/03/10 11:15:00;;;;;;;6.32;1.83;;;;;;;;;;5029017;28;20152;-62
2023/03/10 11:17:32;;;;;;;7.88;2.00;;;;;;;;;;5046330;28;20030;-67
2023/03/10 11:20:24;;;;;;;7.10;2.47;;;;;;;;;;5024547;28;20037;-66
2023/03/10 11:23:08;;;;;;;9.75;2.70;;;;;;;;;;5001040;28;20033;-65
2023/03/10 11:25:46;;;;;;;7.72;2.30;;;;;;;;;;5033145;28;20029;-65
2023/03/10 11:28:33;;;;;;;12.85;2.53;;;;;;;;;;5037521;28;20144;-68
2023/03/10 11:31:19;;;;;;;14.55;2.95;;;;;;;;;;5037173;28;20607;-62
2023/03/10 11:33:51;;;;;;;8.60;2.20;;;;;;;;;;5035868;28;20079;-63
2023/03/10 11:36:38;;;;;;;8.38;1.70;;;;;;;;;;5038251;28;20033;-65
2023/03/10 11:39:42;;;;;;;7.38;2.30;;;;;;;;;;5035963;28;20034;-67
2023/03/10 11:42:32;;;;;;;5.75;1.80;;;;;;;;;;5036002;28;20473;-66
2023/03/10 11:45:25;;;;;;;5.00;1.55;;;;;;;;;;5037600;28;20075;-67
2023/03/10 11:48:24;;;;;;;6.30;1.88;;;;;;;;;;5022476;28;20044;-68
2023/03/10 11:51:02;;;;;;;7.30;1.77;;;;;;;;;;5036145;28;20112;-67
2023/03/10 11:53:34;;;;;;;7.50;1.95;;;;;;;;;;5037864;28;20041;-68
2023/03/10 11:56:01;;;;;;;8.82;1.98;;;;;;;;;;5034353;28;20029;-70
2023/03/10 11:58:48;;;;;;;6.95;2.00;;;;;;;;;;5013366;28;20036;-69
2023/03/10 12:01:23;;;;;;;5.68;1.95;;;;;;;;;;5023211;28;20064;-69
2023/03/10 12:04:14;;;;;;;6.13;1.70;;;;;;;;;;5035572;28;20037;-67
2023/03/10 12:07:02;;;;;;;5.50;1.80;;;;;;;;;;5019309;28;20037;-69
2023/03/10 12:09:59;;;;;;;5.78;1.73;;;;;;;;;;5037225;28;20802;-68
2023/03/10 12:12:37;;;;;;;6.30;2.22;;;;;;;;;;5037540;28;20427;-69
2023/03/10 12:15:35;;;;;;;8.43;2.15;;;;;;;;;;5035394;28;20038;-69
2023/03/10 12:18:06;;;;;;;6.25;1.92;;;;;;;;;;5035084;28;20033;-69
2023/03/10 12:20:32;;;;;;;;;;;;;;;;;;5037859;28;20139;-69
2023/03/10 12:22:59;;;;;;;7.45;1.98;;;;;;;;;;5033614;28;20277;-65
2023/03/10 12:25:31;;;;;;;6.22;1.88;;;;;;;;;;5038094;28;20477;-63
2023/03/10 12:28:15;;;;;;;5.13;1.98;;;;;;;;;;5036022;28;20052;-65
2023/03/10 12:30:45;;;;;;;4.00;1.20;;;;;;;;;;5035787;28;20163;-63
2023/03/10 12:33:29;;;;;;;2.42;1.02;;;;;;;;;;5036062;28;20448;-64
2023/03/10 12:36:14;;;;;;;3.80;1.13;;;;;;;;;;5034646;28;20045;-69
2023/03/10 12:38:59;;;;;;;4.32;1.30;;;;;;;;;;5032967;28;20041;-68
2023/03/10 12:41:24;;;;;;;2.75;1.40;;;;;;;;;;5033720;28;20072;-69
2023/03/10 12:44:02;;;;;;;4.13;1.85;;;;;;;;;;5032542;28;20037;-67
2023/03/10 12:46:46;;;;;;;9.18;2.58;;;;;;;;;;5020953;28;20132;-68
2023/03/10 12:49:42;;;;;;;9.75;2.30;;;;;;;;;;5033656;28;20049;-69
2023/03/10 12:52:16;;;;;;;5.22;2.17;;;;;;;;;;5033000;28;20044;-69
2023/03/10 12:55:11;;;;;;;6.30;2.30;;;;;;;;;;5033759;28;20247;-68
2023/03/10 12:57:52;;;;;;;6.03;2.28;;;;;;;;;;5033149;28;20486;-66
2023/03/10 13:00:45;;;;;;;7.03;2.13;;;;;;;;;;5030358;28;20034;-67
2023/03/10 13:03:26;;;;;;;7.60;2.20;;;;;;;;;;5019536;28;20466;-67
2023/03/10 13:06:00;;;;;;;7.43;2.60;;;;;;;;;;5025485;28;20112;-68
2023/03/10 13:08:57;;;;;;;9.05;2.65;;;;;;;;;;5033587;28;20039;-69
2023/03/10 13:11:36;;;;;;;7.47;2.33;;;;;;;;;;5033985;28;20067;-69
2023/03/10 13:14:09;;;;;;;6.65;2.20;;;;;;;;;;5032587;28;20040;-69
2023/03/10 13:16:35;;;;;;;8.15;2.53;;;;;;;;;;5033975;28;20061;-69
2023/03/10 13:19:02;;;;;;;5.13;2.30;;;;;;;;;;5031284;28;20510;-70
2023/03/10 13:21:34;;;;;;;6.47;2.47;;;;;;;;;;5030181;28;20073;-70
2023/03/10 13:24:01;;;;;;;5.75;1.88;;;;;;;;;;5031948;28;20038;-67
2023/03/10 13:26:27;;;;;;;7.68;2.20;;;;;;;;;;5033313;28;20467;-68
2023/03/10 13:28:56;;;;;;;5.78;1.90;;;;;;;;;;5031016;28;20037;-69
2023/03/10 13:31:24;;;;;;;5.63;1.80;;;;;;;;;;5031750;28;20037;-70
2023/03/10 13:33:52;;;;;;;5.07;1.95;;;;;;;;;;5031487;28;20033;-67
2023/03/10 13:36:35;;;;;;;5.20;1.85;;;;;;;;;;5032563;28;20040;-69
2023/03/10 13:39:14;;;;;;;4.32;2.00;;;;;;;;;;5030933;28;20065;-68
2023/03/10 13:41:43;;;;;;;4.53;2.10;;;;;;;;;;5032419;28;20033;-65
2023/03/10 13:44:20;;;;;;;5.80;2.00;;;;;;;;;;5030788;28;20044;-69
2023/03/10 13:46:59;;;;;;;8.40;2.40;;;;;;;;;;5032533;28;20044;-68
2023/03/10 13:49:27;;;;;;;6.78;2.63;;;;;;;;;;5032825;28;20037;-69
2023/03/10 13:51:58;;;;;;;11.68;2.78;;;;;;;;;;5031026;28;20033;-68
2023/03/10 13:54:31;;;;;;;8.63;2.67;;;;;;;;;;5014410;28;21584;-68
2023/03/10 13:57:01;;;;;;;3.28;2.03;;;;;;;;;;5028829;28;20474;-67
2023/03/10 13:59:30;;;;;;;5.30;2.80;;;;;;;;;;5031657;28;20033;-70
2023/03/10 14:01:58;;;;;;;8.52;2.88;;;;;;;;;;5030963;28;20091;-69
2023/03/10 14:04:43;;;;;;;6.07;2.50;;;;;;;;;;5032132;28;20037;-69
2023/03/10 14:07:25;;;;;;;5.63;2.70;;;;;;;;;;5030656;28;20029;-70
2023/03/10 14:10:02;;;;;;;8.02;2.67;;;;;;;;;;5031782;28;20044;-67
2023/03/10 14:12:38;;;;;;;7.13;2.95;;;;;;;;;;5032371;28;20033;-69
2023/03/10 14:15:16;;;;;;;5.88;2.80;;;;;;;;;;5030683;28;20481;-69
2023/03/10 14:17:42;;;;;;;6.78;3.20;;;;;;;;;;5014848;28;20026;-69
2023/03/10 14:20:10;;;;;;;5.97;2.90;;;;;;;;;;5030761;28;20033;-71
2023/03/10 14:22:42;;;;;;;7.85;3.47;;;;;;;;;;5032555;28;20111;-71
2023/03/10 14:25:14;;;;;;;9.45;3.00;;;;;;;;;;5030879;28;20047;-71
2023/03/10 14:27:43;;;;;;;7.72;2.80;;;;;;;;;;5030596;28;20075;-70
2023/03/10 14:30:19;;;;;;;7.68;3.25;;;;;;;;;;5013067;28;20128;-69
2023/03/10 14:32:44;;;;;;;5.45;2.20;;;;;;;;;;5032316;28;20501;-69
2023/03/10 14:35:15;;;;;;;3.78;2.10;;;;;;;;;;5028134;28;20049;-70
2023/03/10 14:37:40;;;;;;;5.95;2.42;;;;;;;;;;5031444;28;20126;-71
2023/03/10 14:40:06;;;;;;;9.63;2.35;;;;;;;;;;5030260;28;20480;-69
2023/03/10 14:42:32;;;;;;;6.60;2.50;;;;;;;;;;5032307;28;20032;-70
2023/03/10 14:45:20;;;;;;;5.22;2.25;;;;;;;;;;5026241;28;20053;-66
2023/03/10 14:47:45;;;;;;;4.85;2.47;;;;;;;;;;5031932;28;20444;-65
2023/03/10 14:50:15;;;;;;;5.72;3.00;;;;;;;;;;5030166;28;20037;-66
2023/03/10 14:52:40;;;;;;;4.95;2.47;;;;;;;;;;5031974;28;20466;-67
2023/03/10 14:55:09;;;;;;;4.35;2.10;;;;;;;;;;5030686;28;20091;-67